Time;durP1;ratioP1;P1;durP2;ratioP2;P2;SDS_P1;SDS_P2;PMS_P1;PMS_P2;Temp;Humidity;BMP_temperature;BMP_pressure;BME280_temperature;BME280_humidity;BME280_pressure;Samples;Min_cycle;Max_cycle;Signal;HPM_P1;HPM_P2
2022/06/16 00:02:20;;;;;;;4.35;2.78;;;18.60;99.90;;;;;;5014823;28;20188;-66
2022/06/16 00:04:46;;;;;;;4.60;3.30;;;18.60;99.90;;;;;;5013954;28;20295;-65
2022/06/16 00:07:13;;;;;;;3.63;3.05;;;18.60;99.90;;;;;;5013714;28;20256;-66
2022/06/16 00:09:39;;;;;;;3.17;2.88;;;18.40;99.90;;;;;;5013167;28;20177;-66
2022/06/16 00:12:05;;;;;;;3.33;2.97;;;18.30;99.90;;;;;;5013706;28;20239;-65
2022/06/16 00:14:31;;;;;;;3.92;3.13;;;18.30;99.90;;;;;;5013798;28;20195;-66
2022/06/16 00:16:56;;;;;;;3.67;3.08;;;18.40;99.90;;;;;;5013871;28;20224;-66
2022/06/16 00:19:22;;;;;;;3.85;3.17;;;18.40;99.90;;;;;;5014132;28;20180;-68
2022/06/16 00:21:47;;;;;;;5.35;3.20;;;18.20;99.90;;;;;;5014327;28;20252;-65
2022/06/16 00:24:13;;;;;;;3.97;3.38;;;18.20;99.90;;;;;;5014062;28;20184;-67
2022/06/16 00:26:39;;;;;;;4.43;3.30;;;18.20;99.90;;;;;;5013874;28;20162;-66
2022/06/16 00:29:04;;;;;;;3.45;3.10;;;18.30;99.90;;;;;;5013876;28;20641;-66
2022/06/16 00:31:30;;;;;;;7.40;3.10;;;18.20;99.90;;;;;;5013708;28;20166;-66
2022/06/16 00:33:55;;;;;;;3.47;3.17;;;18.20;99.90;;;;;;5013967;28;20610;-66
2022/06/16 00:36:21;;;;;;;5.13;3.47;;;18.20;99.90;;;;;;5013622;28;20235;-66
2022/06/16 00:38:46;;;;;;;5.30;3.33;;;18.20;99.90;;;;;;5013944;28;20648;-66
2022/06/16 00:41:13;;;;;;;7.15;3.30;;;18.20;99.90;;;;;;5013329;28;20174;-66
2022/06/16 00:43:39;;;;;;;5.10;3.70;;;18.20;99.90;;;;;;5013854;28;20165;-66
2022/06/16 00:46:07;;;;;;;3.83;3.35;;;18.20;99.90;;;;;;5013714;28;20157;-65
2022/06/16 00:48:38;;;;;;;4.43;3.47;;;18.20;99.90;;;;;;5013505;28;20244;-66
2022/06/16 00:51:27;;;;;;;4.20;3.50;;;18.10;99.90;;;;;;5013819;28;20166;-65
2022/06/16 00:54:05;;;;;;;8.80;4.00;;;18.00;99.90;;;;;;5013441;28;20172;-65
2022/06/16 00:56:30;;;;;;;4.10;3.58;;;17.90;99.90;;;;;;5013929;28;20516;-64
2022/06/16 00:59:03;;;;;;;4.55;3.40;;;17.80;99.90;;;;;;5012443;28;20208;-66
2022/06/16 01:01:30;;;;;;;4.75;3.33;;;17.90;99.90;;;;;;5013687;28;20185;-66
2022/06/16 01:06:42;;;;;;;6.45;3.58;;;17.90;99.90;;;;;;5013645;28;20636;-64
2022/06/16 01:09:11;;;;;;;4.50;4.10;;;17.90;99.90;;;;;;5013320;28;20169;-66
2022/06/16 01:15:22;;;;;;;4.45;3.05;;;17.70;99.90;;;;;;5016332;28;20528;-65
2022/06/16 01:18:06;;;;;;;4.75;3.70;;;17.70;99.90;;;;;;5008805;28;20220;-66
2022/06/16 01:20:53;;;;;;;6.88;4.00;;;17.60;99.90;;;;;;5015222;28;20635;-65
2022/06/16 01:23:43;;;;;;;3.75;3.33;;;17.60;99.90;;;;;;5013045;28;20210;-66
2022/06/16 01:26:31;;;;;;;4.10;3.70;;;17.50;99.90;;;;;;5013701;28;20200;-66
2022/06/16 01:29:12;;;;;;;3.95;3.55;;;17.60;99.90;;;;;;5012761;28;20170;-65
2022/06/16 01:31:49;;;;;;;4.72;3.53;;;17.60;99.90;;;;;;5015823;28;20503;-66
2022/06/16 01:34:40;;;;;;;3.75;3.45;;;17.50;99.90;;;;;;5017240;28;20165;-66
2022/06/16 01:37:24;;;;;;;4.63;3.42;;;17.30;99.90;;;;;;5020241;28;20325;-65
2022/06/16 01:40:07;;;;;;;5.60;3.75;;;17.40;99.90;;;;;;5021174;28;20516;-66
2022/06/16 01:42:55;;;;;;;3.97;3.42;;;17.50;99.90;;;;;;5022389;28;20157;-67
2022/06/16 01:45:44;;;;;;;6.80;3.63;;;17.50;99.90;;;;;;5014741;28;20248;-67
2022/06/16 01:48:12;;;;;;;5.10;3.60;;;17.30;99.90;;;;;;5017380;28;20170;-65
2022/06/16 01:50:44;;;;;;;6.63;4.03;;;17.40;99.90;;;;;;5020826;28;20204;-67
2022/06/16 01:53:46;;;;;;;6.13;4.07;;;17.40;99.90;;;;;;5018830;28;20169;-67
2022/06/16 01:56:20;;;;;;;6.78;4.25;;;17.40;99.90;;;;;;5018542;28;20229;-66
2022/06/16 01:58:52;;;;;;;5.65;3.78;;;17.40;99.90;;;;;;5022837;28;20200;-66
2022/06/16 02:01:21;;;;;;;4.60;3.73;;;17.30;99.90;;;;;;5014872;28;20182;-66
2022/06/16 02:04:02;;;;;;;6.93;4.13;;;17.30;99.90;;;;;;5011250;28;20290;-65
2022/06/16 02:06:36;;;;;;;5.97;4.25;;;17.20;99.90;;;;;;5012802;28;20166;-68
2022/06/16 02:09:08;;;;;;;4.20;3.80;;;17.10;99.90;;;;;;5014414;28;20185;-66
2022/06/16 02:11:36;;;;;;;5.47;3.92;;;16.90;99.90;;;;;;5016165;28;20633;-65
2022/06/16 02:14:15;;;;;;;4.65;4.25;;;17.10;99.90;;;;;;5014965;28;20231;-66
2022/06/16 02:16:43;;;;;;;5.78;4.43;;;17.00;99.90;;;;;;5016220;28;20164;-64
2022/06/16 02:19:15;;;;;;;7.05;4.32;;;17.10;99.90;;;;;;5016137;28;20297;-64
2022/06/16 02:21:47;;;;;;;8.07;4.50;;;17.00;99.90;;;;;;5016515;28;20176;-67
2022/06/16 02:24:15;;;;;;;5.55;4.10;;;17.00;99.90;;;;;;5021946;28;20166;-68
2022/06/16 02:26:42;;;;;;;5.35;4.30;;;16.90;99.90;;;;;;5022288;28;20554;-68
2022/06/16 02:29:22;;;;;;;4.67;4.27;;;17.00;99.90;;;;;;5027808;28;20165;-67
2022/06/16 02:32:15;;;;;;;4.47;3.97;;;16.90;99.90;;;;;;5026205;28;20161;-67
2022/06/16 02:34:44;;;;;;;4.35;3.83;;;16.90;99.90;;;;;;5028467;28;20166;-64
2022/06/16 02:37:32;;;;;;;5.47;4.72;;;16.90;99.90;;;;;;5019756;28;20158;-64
2022/06/16 02:40:28;;;;;;;4.10;3.80;;;16.80;99.90;;;;;;5016455;28;20177;-67
2022/06/16 02:43:18;;;;;;;5.70;4.13;;;16.90;99.90;;;;;;5016358;28;20181;-66
2022/06/16 02:46:06;;;;;;;6.38;4.28;;;16.90;99.90;;;;;;5016163;28;20453;-65
2022/06/16 02:48:49;;;;;;;5.33;4.00;;;16.80;99.90;;;;;;5015639;28;20198;-65
2022/06/16 02:51:28;;;;;;;5.67;3.93;;;16.70;99.90;;;;;;5015686;28;20166;-65
2022/06/16 02:54:20;;;;;;;5.65;4.20;;;16.80;99.90;;;;;;5015122;28;20165;-64
2022/06/16 02:57:12;;;;;;;6.33;4.37;;;16.80;99.90;;;;;;5016077;28;20169;-65
2022/06/16 02:59:47;;;;;;;6.60;4.25;;;17.00;99.90;;;;;;5011861;28;20216;-66
2022/06/16 03:02:17;;;;;;;4.20;3.70;;;16.90;99.90;;;;;;5015239;28;20181;-66
2022/06/16 03:04:50;;;;;;;6.47;4.00;;;17.00;99.90;;;;;;5015152;28;20233;-67
2022/06/16 03:07:17;;;;;;;7.40;4.15;;;17.10;99.90;;;;;;5015198;28;20568;-65
2022/06/16 03:09:43;;;;;;;4.50;3.70;;;17.10;99.90;;;;;;5014424;28;20185;-65
2022/06/16 03:12:10;;;;;;;4.67;4.00;;;17.10;99.90;;;;;;5014861;28;20486;-67
2022/06/16 03:14:36;;;;;;;5.70;3.90;;;17.00;99.90;;;;;;5014819;28;20170;-66
2022/06/16 03:17:02;;;;;;;5.13;3.90;;;17.10;99.90;;;;;;5014907;28;20174;-64
2022/06/16 03:19:28;;;;;;;4.63;4.03;;;17.10;99.90;;;;;;5014545;28;20239;-67
2022/06/16 03:21:54;;;;;;;4.25;3.85;;;17.00;99.90;;;;;;5014179;28;20169;-67
2022/06/16 03:24:21;;;;;;;4.80;3.87;;;17.00;99.90;;;;;;5014776;28;20213;-66
2022/06/16 03:26:47;;;;;;;7.57;3.85;;;17.10;99.90;;;;;;5014916;28;20177;-64
2022/06/16 03:29:13;;;;;;;5.15;4.10;;;17.20;99.90;;;;;;5014735;28;20292;-67
2022/06/16 03:31:39;;;;;;;4.18;3.78;;;17.10;99.90;;;;;;5014381;28;20586;-66
2022/06/16 03:34:05;;;;;;;4.20;3.80;;;17.00;99.90;;;;;;5014389;28;20180;-65
2022/06/16 03:36:31;;;;;;;8.02;3.90;;;16.90;99.90;;;;;;5015068;28;20165;-65
2022/06/16 03:38:57;;;;;;;5.82;4.13;;;17.00;99.90;;;;;;5018588;28;20605;-67
2022/06/16 03:41:23;;;;;;;5.00;3.87;;;17.20;99.90;;;;;;5019232;28;20174;-66
2022/06/16 03:43:49;;;;;;;6.18;3.67;;;17.20;99.90;;;;;;5017474;28;20177;-65
2022/06/16 03:46:16;;;;;;;4.32;3.60;;;17.20;99.90;;;;;;5017414;28;20169;-66
2022/06/16 03:48:42;;;;;;;5.07;3.85;;;17.20;99.90;;;;;;5016761;28;20197;-66
2022/06/16 03:51:09;;;;;;;6.75;3.63;;;17.20;99.90;;;;;;5015543;28;20193;-64
2022/06/16 03:53:38;;;;;;;10.65;3.97;;;17.30;99.90;;;;;;5014009;28;20150;-67
2022/06/16 03:56:04;;;;;;;4.93;3.55;;;17.40;99.90;;;;;;5014430;28;20180;-65
2022/06/16 03:58:30;;;;;;;5.97;4.20;;;17.30;99.90;;;;;;5013922;28;20196;-65
2022/06/16 04:00:55;;;;;;;6.65;4.30;;;17.30;99.90;;;;;;5013943;28;20576;-65
2022/06/16 04:06:06;;;;;;;6.07;4.05;;;17.00;99.90;;;;;;5013636;28;20228;-67
2022/06/16 04:08:31;;;;;;;3.65;3.35;;;17.30;99.90;;;;;;5014445;28;20177;-65
2022/06/16 04:10:57;;;;;;;4.95;3.90;;;17.30;99.90;;;;;;5014256;28;20200;-67
2022/06/16 04:13:23;;;;;;;5.18;4.10;;;17.20;99.90;;;;;;5013744;28;20192;-67
2022/06/16 04:15:53;;;;;;;5.68;4.22;;;17.10;99.90;;;;;;5014474;28;20214;-65
2022/06/16 04:18:20;;;;;;;5.32;4.20;;;16.90;99.90;;;;;;5013983;28;20595;-65
2022/06/16 04:20:47;;;;;;;7.53;4.10;;;16.80;99.90;;;;;;5014175;28;20162;-67
2022/06/16 04:23:13;;;;;;;6.40;4.00;;;16.70;99.90;;;;;;5013821;28;20166;-67
2022/06/16 04:25:39;;;;;;;4.90;4.40;;;16.80;99.90;;;;;;5013554;28;20216;-66
2022/06/16 04:28:06;;;;;;;5.60;4.30;;;16.90;99.90;;;;;;5013597;28;20170;-64
2022/06/16 04:30:33;;;;;;;4.63;3.97;;;16.90;99.90;;;;;;5013624;28;20428;-67
2022/06/16 04:32:59;;;;;;;7.50;4.17;;;16.90;99.90;;;;;;5013377;28;20173;-65
2022/06/16 04:35:26;;;;;;;5.90;4.10;;;17.20;99.90;;;;;;5013571;28;20249;-66
2022/06/16 04:37:53;;;;;;;7.30;4.53;;;17.30;99.90;;;;;;5013287;28;20204;-66
2022/06/16 04:40:19;;;;;;;7.40;4.17;;;17.50;99.90;;;;;;5013300;28;20168;-66
2022/06/16 04:42:44;;;;;;;5.05;4.55;;;17.60;99.90;;;;;;5012701;28;20268;-65
2022/06/16 04:45:11;;;;;;;6.60;3.83;;;17.50;99.90;;;;;;5013676;28;20170;-66
2022/06/16 04:47:38;;;;;;;6.70;4.13;;;17.50;99.90;;;;;;5013577;28;20165;-65
2022/06/16 04:50:04;;;;;;;4.88;4.15;;;17.70;99.90;;;;;;5013761;28;20170;-66
2022/06/16 04:52:30;;;;;;;7.03;3.78;;;17.80;99.90;;;;;;5013368;28;20174;-66
2022/06/16 04:54:55;;;;;;;4.82;3.80;;;17.50;99.90;;;;;;5013476;28;20260;-68
2022/06/16 04:57:22;;;;;;;5.32;4.07;;;17.60;99.90;;;;;;5013494;28;20180;-66
2022/06/16 04:59:48;;;;;;;4.28;3.88;;;17.50;99.90;;;;;;5012929;28;20595;-66
2022/06/16 05:02:14;;;;;;;4.82;4.10;;;17.60;99.90;;;;;;5013469;28;20191;-66
2022/06/16 05:04:41;;;;;;;7.13;4.55;;;17.70;99.90;;;;;;5013534;28;20224;-65
2022/06/16 05:07:07;;;;;;;5.50;4.60;;;17.70;99.90;;;;;;5012730;28;20305;-66
2022/06/16 05:09:32;;;;;;;8.88;4.65;;;17.80;99.90;;;;;;5012769;28;20165;-66
2022/06/16 05:11:58;;;;;;;5.32;4.32;;;17.90;99.90;;;;;;5013404;28;20204;-66
2022/06/16 05:14:23;;;;;;;5.03;3.97;;;17.90;99.90;;;;;;5013042;28;20169;-66
2022/06/16 05:16:49;;;;;;;9.07;4.40;;;18.10;99.90;;;;;;5012959;28;20193;-67
2022/06/16 05:19:15;;;;;;;5.70;4.05;;;18.30;99.90;;;;;;5013161;28;20201;-65
2022/06/16 05:21:41;;;;;;;4.38;3.92;;;18.50;99.90;;;;;;5013299;28;20578;-67
2022/06/16 05:24:07;;;;;;;7.70;3.97;;;18.30;99.90;;;;;;5013535;28;20207;-67
2022/06/16 05:26:33;;;;;;;4.10;3.70;;;18.40;99.90;;;;;;5013175;28;20621;-67
2022/06/16 05:28:59;;;;;;;4.65;4.25;;;18.50;99.90;;;;;;5014684;28;20158;-66
2022/06/16 05:31:24;;;;;;;5.38;4.00;;;18.50;99.90;;;;;;5019606;28;20300;-68
2022/06/16 05:33:50;;;;;;;4.70;4.10;;;18.60;99.90;;;;;;5020815;28;20193;-66
2022/06/16 05:36:18;;;;;;;4.22;3.83;;;18.60;99.90;;;;;;5016745;28;20641;-65
2022/06/16 05:38:44;;;;;;;4.50;3.75;;;18.70;99.90;;;;;;5015881;28;20284;-64
2022/06/16 05:41:13;;;;;;;5.95;4.18;;;18.60;99.90;;;;;;5016131;28;20192;-66
2022/06/16 05:43:39;;;;;;;5.13;4.00;;;18.70;99.90;;;;;;5019112;28;20253;-65
2022/06/16 05:46:06;;;;;;;6.38;4.07;;;18.90;99.90;;;;;;5026008;28;20180;-66
2022/06/16 05:48:32;;;;;;;6.03;4.10;;;19.00;99.90;;;;;;5022797;28;20192;-67
2022/06/16 05:51:07;;;;;;;5.35;3.92;;;19.20;99.90;;;;;;5028280;28;20168;-66
2022/06/16 05:53:32;;;;;;;7.65;4.13;;;19.20;99.90;;;;;;5026177;28;20184;-66
2022/06/16 05:55:58;;;;;;;4.07;3.40;;;19.20;99.90;;;;;;5017639;28;20512;-64
2022/06/16 05:58:24;;;;;;;7.32;4.03;;;19.30;99.90;;;;;;5023012;28;20300;-67
2022/06/16 06:00:49;;;;;;;4.22;3.50;;;19.30;99.90;;;;;;5022932;28;20582;-66
2022/06/16 06:03:15;;;;;;;9.82;3.35;;;19.20;99.90;;;;;;5021649;28;20188;-66
2022/06/16 06:05:40;;;;;;;3.90;3.30;;;19.20;99.90;;;;;;5022519;28;20229;-65
2022/06/16 06:16:28;;;;;;;4.22;3.53;;;19.80;99.90;;;;;;5017345;28;20161;-68
2022/06/16 06:18:58;;;;;;;5.22;3.50;;;19.90;99.90;;;;;;5016795;28;20198;-67
2022/06/16 06:24:11;;;;;;;4.97;3.40;;;19.70;99.90;;;;;;5016260;28;20185;-67
2022/06/16 06:26:37;;;;;;;5.82;3.63;;;19.80;99.90;;;;;;5016173;28;20162;-67
2022/06/16 06:29:04;;;;;;;5.03;3.53;;;19.80;99.90;;;;;;5016421;28;20526;-67
2022/06/16 06:31:30;;;;;;;6.38;3.67;;;19.70;99.90;;;;;;5015815;28;20222;-68
2022/06/16 06:33:55;;;;;;;8.82;3.60;;;19.70;99.90;;;;;;5015777;28;20546;-67
2022/06/16 06:36:21;;;;;;;7.00;3.80;;;19.70;99.90;;;;;;5015576;28;20184;-67
2022/06/16 06:38:47;;;;;;;10.38;3.63;;;19.80;99.90;;;;;;5015954;28;20206;-66
2022/06/16 06:41:14;;;;;;;5.20;3.40;;;19.80;99.90;;;;;;5016038;28;20471;-67
2022/06/16 06:43:40;;;;;;;7.03;3.63;;;19.70;99.90;;;;;;5015777;28;20590;-68
2022/06/16 06:46:06;;;;;;;5.00;3.70;;;19.70;99.90;;;;;;5015633;28;20191;-68
2022/06/16 06:48:32;;;;;;;5.55;3.53;;;19.60;99.90;;;;;;5015988;28;20170;-68
2022/06/16 06:50:58;;;;;;;5.65;4.53;;;19.60;99.90;;;;;;5016012;28;20161;-67
2022/06/16 06:53:24;;;;;;;6.63;4.00;;;19.50;99.90;;;;;;5016406;28;20177;-67
2022/06/16 06:55:49;;;;;;;16.13;4.10;;;19.50;99.90;;;;;;5015297;28;20252;-67
2022/06/16 06:58:21;;;;;;;7.10;3.78;;;19.40;99.90;;;;;;5015127;28;20228;-67
2022/06/16 07:00:46;;;;;;;6.90;4.10;;;19.40;99.90;;;;;;5015309;28;20166;-66
2022/06/16 07:03:12;;;;;;;5.15;3.75;;;19.40;99.90;;;;;;5015355;28;20235;-68
2022/06/16 07:05:38;;;;;;;8.35;3.80;;;19.50;99.90;;;;;;5015430;28;20232;-67
2022/06/16 07:08:05;;;;;;;8.05;3.90;;;19.60;99.90;;;;;;5015508;28;20166;-65
2022/06/16 07:10:30;;;;;;;8.55;4.20;;;19.80;99.90;;;;;;5026080;28;20607;-67
2022/06/16 07:12:56;;;;;;;11.60;4.60;;;19.80;99.90;;;;;;5034885;28;20197;-70
2022/06/16 07:15:22;;;;;;;7.45;4.65;;;19.70;99.90;;;;;;5034905;28;20203;-71
2022/06/16 07:17:48;;;;;;;8.13;5.65;;;19.90;99.90;;;;;;5034870;28;20201;-69
2022/06/16 07:20:15;;;;;;;8.13;4.80;;;20.00;99.90;;;;;;5035183;28;20247;-71
2022/06/16 07:22:42;;;;;;;8.60;3.92;;;20.10;99.90;;;;;;5035076;28;20508;-70
2022/06/16 07:25:08;;;;;;;7.93;4.57;;;20.10;99.90;;;;;;5035312;28;20602;-71
2022/06/16 07:27:34;;;;;;;8.20;4.30;;;20.10;99.90;;;;;;5034065;28;20192;-69
2022/06/16 07:30:00;;;;;;;4.93;4.10;;;20.10;99.90;;;;;;5035650;28;20188;-71
2022/06/16 07:32:25;;;;;;;9.45;4.75;;;20.10;99.90;;;;;;5039273;28;20602;-73
2022/06/16 07:34:51;;;;;;;5.00;4.50;;;20.10;99.90;;;;;;5042073;28;20576;-70
2022/06/16 07:37:18;;;;;;;5.65;4.72;;;20.10;99.90;;;;;;5045196;28;20520;-70
2022/06/16 07:39:45;;;;;;;7.10;5.00;;;20.00;99.90;;;;;;5047378;28;20161;-72
2022/06/16 07:42:11;;;;;;;9.15;4.65;;;20.10;99.90;;;;;;5035632;28;20200;-68
2022/06/16 07:44:37;;;;;;;6.93;4.63;;;20.10;99.90;;;;;;5034217;28;20169;-70
2022/06/16 07:47:04;;;;;;;5.57;4.88;;;20.10;99.90;;;;;;5034442;28;20199;-72
2022/06/16 07:49:30;;;;;;;8.38;4.78;;;20.20;99.90;;;;;;5036242;28;20161;-70
2022/06/16 07:51:57;;;;;;;7.32;4.85;;;20.30;99.90;;;;;;5040988;28;20512;-70
2022/06/16 07:54:23;;;;;;;5.70;4.40;;;20.40;99.90;;;;;;5040426;28;20256;-70
2022/06/16 07:56:50;;;;;;;5.90;4.50;;;20.40;99.90;;;;;;5043169;28;20164;-70
2022/06/16 07:59:15;;;;;;;8.02;4.97;;;20.40;99.90;;;;;;5040651;28;20695;-71
2022/06/16 08:01:41;;;;;;;7.18;5.43;;;20.50;99.90;;;;;;5037918;28;20177;-71
2022/06/16 08:04:06;;;;;;;4.85;4.35;;;20.50;99.90;;;;;;5035565;28;20236;-70
2022/06/16 08:06:35;;;;;;;5.25;4.45;;;20.60;99.90;;;;;;5034376;28;20165;-69
2022/06/16 08:09:01;;;;;;;13.32;4.50;;;20.60;99.90;;;;;;5034697;28;20173;-69
2022/06/16 08:14:11;;;;;;;5.65;4.35;;;20.60;99.90;;;;;;5034030;28;20296;-70
2022/06/16 08:16:37;;;;;;;5.10;4.18;;;21.00;99.90;;;;;;5034098;28;20165;-70
2022/06/16 08:19:04;;;;;;;8.40;4.30;;;21.00;99.90;;;;;;5033599;28;20200;-70
2022/06/16 08:21:30;;;;;;;6.32;4.55;;;21.10;99.90;;;;;;5033882;28;20609;-69
2022/06/16 08:23:55;;;;;;;5.97;4.50;;;21.40;99.90;;;;;;5033223;28;20177;-70
2022/06/16 08:26:22;;;;;;;7.45;4.70;;;21.60;99.90;;;;;;5034379;28;20196;-68
2022/06/16 08:28:50;;;;;;;5.50;4.75;;;21.80;99.90;;;;;;5032615;28;20291;-70
2022/06/16 08:31:17;;;;;;;6.80;4.97;;;21.80;99.90;;;;;;5034202;28;20215;-69
2022/06/16 08:33:43;;;;;;;6.55;4.88;;;21.80;99.90;;;;;;5033923;28;20549;-67
2022/06/16 08:36:09;;;;;;;10.70;5.07;;;21.70;99.90;;;;;;5033258;28;20215;-68
2022/06/16 08:38:35;;;;;;;6.97;4.47;;;21.80;99.90;;;;;;5033499;28;20205;-68
2022/06/16 08:41:11;;;;;;;5.90;4.22;;;21.70;99.90;;;;;;5033418;28;20589;-69
2022/06/16 08:44:00;;;;;;;5.60;4.63;;;21.90;99.90;;;;;;5033607;28;20169;-70
2022/06/16 08:46:34;;;;;;;6.78;4.50;;;21.70;99.90;;;;;;5033302;28;20250;-69
2022/06/16 08:49:10;;;;;;;5.80;4.28;;;21.80;99.90;;;;;;5032027;28;20185;-68
2022/06/16 08:51:48;;;;;;;7.85;4.30;;;21.70;99.90;;;;;;5033594;28;20165;-71
2022/06/16 08:54:33;;;;;;;6.70;3.90;;;21.70;99.90;;;;;;5034993;28;20190;-68
2022/06/16 08:57:07;;;;;;;4.32;3.90;;;21.80;99.90;;;;;;5033007;28;20161;-70
2022/06/16 08:59:53;;;;;;;5.15;3.78;;;22.20;99.90;;;;;;5032991;28;20632;-69
2022/06/16 09:02:37;;;;;;;6.43;4.05;;;22.10;99.90;;;;;;5033422;28;20177;-68
2022/06/16 09:05:23;;;;;;;7.20;4.20;;;22.00;99.90;;;;;;5031582;28;20240;-69
2022/06/16 09:08:18;;;;;;;6.03;4.15;;;21.80;99.90;;;;;;5033110;28;20205;-67
2022/06/16 09:11:10;;;;;;;6.75;3.80;;;22.00;99.90;;;;;;5032149;28;20181;-69
2022/06/16 09:13:42;;;;;;;6.65;4.10;;;22.60;99.90;;;;;;5034938;28;20212;-67
2022/06/16 09:16:34;;;;;;;4.38;3.75;;;22.60;99.90;;;;;;5035811;28;20169;-70
2022/06/16 09:19:23;;;;;;;4.65;3.90;;;22.60;99.90;;;;;;5038449;28;20212;-69
2022/06/16 09:22:06;;;;;;;5.13;4.05;;;22.50;99.90;;;;;;5047136;28;20157;-68
2022/06/16 09:24:52;;;;;;;6.10;3.80;;;22.40;99.90;;;;;;5042975;28;20169;-67
2022/06/16 09:27:25;;;;;;;11.50;3.85;;;22.30;99.90;;;;;;5037310;28;20206;-68
2022/06/16 09:30:00;;;;;;;6.32;3.65;;;22.20;99.90;;;;;;5036585;28;20157;-70
2022/06/16 09:32:34;;;;;;;6.50;3.90;;;22.10;99.90;;;;;;5036796;28;20588;-70
2022/06/16 09:35:10;;;;;;;4.25;3.70;;;22.10;99.90;;;;;;5036838;28;20579;-69
2022/06/16 09:37:46;;;;;;;4.43;3.70;;;22.40;99.90;;;;;;5036648;28;20613;-68
2022/06/16 09:40:18;;;;;;;8.57;3.80;;;22.60;99.90;;;;;;5036120;28;20354;-68
2022/06/16 09:43:12;;;;;;;6.75;3.60;;;22.90;99.90;;;;;;5036963;28;20223;-70
2022/06/16 09:45:59;;;;;;;4.85;3.60;;;23.20;99.90;;;;;;5036797;28;20188;-68
2022/06/16 09:48:41;;;;;;;5.70;3.58;;;23.20;99.90;;;;;;5036347;28;20307;-68
2022/06/16 09:51:14;;;;;;;6.18;3.75;;;23.30;99.90;;;;;;5041190;28;20161;-68
2022/06/16 09:53:45;;;;;;;5.57;3.60;;;23.40;99.90;;;;;;5043001;28;20476;-69
2022/06/16 09:56:34;;;;;;;9.98;3.97;;;23.30;99.90;;;;;;5044973;28;20253;-69
2022/06/16 09:59:22;;;;;;;5.60;3.83;;;23.40;99.90;;;;;;5041551;28;20248;-69
2022/06/16 10:01:54;;;;;;;4.70;3.45;;;23.30;99.90;;;;;;5036299;28;20303;-68
2022/06/16 10:04:20;;;;;;;6.00;3.42;;;23.20;99.90;;;;;;5036480;28;20231;-69
2022/06/16 10:06:58;;;;;;;7.47;4.13;;;23.20;99.90;;;;;;5035446;28;20507;-69
2022/06/16 10:09:38;;;;;;;3.65;3.35;;;23.20;99.90;;;;;;5035913;28;20171;-69
2022/06/16 10:12:52;;;;;;;7.22;3.55;;;23.30;99.90;;;;;;5036255;28;20168;-68
2022/06/16 10:15:34;;;;;;;4.97;3.65;;;23.40;99.90;;;;;;5035640;28;20226;-68
2022/06/16 10:18:00;;;;;;;3.90;3.58;;;23.50;99.90;;;;;;5036502;28;20207;-70
2022/06/16 10:20:28;;;;;;;5.72;3.33;;;23.40;99.90;;;;;;5036173;28;20169;-68
2022/06/16 10:23:07;;;;;;;4.95;3.00;;;23.20;99.90;;;;;;5035586;28;20563;-69
2022/06/16 10:25:39;;;;;;;7.07;3.25;;;23.30;99.90;;;;;;5035295;28;20211;-69
2022/06/16 10:28:30;;;;;;;8.80;4.13;;;23.30;99.90;;;;;;5036242;28;20175;-67
2022/06/16 10:30:58;;;;;;;7.63;3.47;;;23.40;99.90;;;;;;5035515;28;20244;-68
2022/06/16 10:33:27;;;;;;;7.45;4.93;;;23.80;99.90;;;;;;5036224;28;20205;-68
2022/06/16 10:36:16;;;;;;;7.90;4.00;;;23.80;99.90;;;;;;5036096;28;20169;-68
2022/06/16 10:39:15;;;;;;;4.20;3.78;;;23.70;99.90;;;;;;5034705;28;20213;-68
2022/06/16 10:41:51;;;;;;;8.20;3.80;;;23.70;99.90;;;;;;5036097;28;20360;-67
2022/06/16 10:44:19;;;;;;;4.25;3.33;;;23.60;99.90;;;;;;5035847;28;20168;-71
2022/06/16 10:46:55;;;;;;;7.00;3.63;;;23.70;99.20;;;;;;5035643;28;20611;-69
2022/06/16 10:49:26;;;;;;;6.45;3.75;;;24.20;98.30;;;;;;5034951;28;20561;-70
2022/06/16 10:52:04;;;;;;;6.07;3.40;;;24.60;96.00;;;;;;5036042;28;20587;-70
2022/06/16 10:54:34;;;;;;;3.88;3.50;;;25.00;95.20;;;;;;5035963;28;20169;-67
2022/06/16 10:57:17;;;;;;;4.68;3.13;;;25.10;93.40;;;;;;5035420;28;20688;-70
2022/06/16 10:59:49;;;;;;;6.03;3.40;;;24.70;93.40;;;;;;5035452;28;20219;-70
2022/06/16 11:02:23;;;;;;;5.97;3.28;;;24.10;95.40;;;;;;5035140;28;20189;-69
2022/06/16 11:05:12;;;;;;;4.10;3.03;;;24.30;95.10;;;;;;5035551;28;20664;-68
2022/06/16 11:07:43;;;;;;;5.78;3.03;;;24.30;93.30;;;;;;5035577;28;20228;-69
2022/06/16 11:10:13;;;;;;;5.05;3.30;;;24.40;95.30;;;;;;5034506;28;20263;-69
2022/06/16 11:12:45;;;;;;;3.90;3.00;;;24.50;94.90;;;;;;5038086;28;20157;-68
2022/06/16 11:15:16;;;;;;;6.43;3.28;;;24.60;93.90;;;;;;5039888;28;20161;-70
2022/06/16 11:17:48;;;;;;;6.32;3.60;;;24.60;94.30;;;;;;5040070;28;20317;-69
2022/06/16 11:20:16;;;;;;;3.67;3.15;;;24.60;93.20;;;;;;5042833;28;20157;-68
2022/06/16 11:22:45;;;;;;;5.53;3.25;;;24.60;93.30;;;;;;5038152;28;20173;-70
2022/06/16 11:25:21;;;;;;;7.03;3.65;;;24.50;92.80;;;;;;5034936;28;20168;-68
2022/06/16 11:27:56;;;;;;;5.57;3.05;;;24.30;92.90;;;;;;5034235;28;20222;-66
2022/06/16 11:30:28;;;;;;;3.28;2.97;;;24.50;91.70;;;;;;5035131;28;20173;-70
2022/06/16 11:32:54;;;;;;;5.20;3.10;;;25.10;90.70;;;;;;5033560;28;20184;-67
2022/06/16 11:35:36;;;;;;;5.25;2.97;;;25.20;88.20;;;;;;5034381;28;20161;-69
2022/06/16 11:38:11;;;;;;;5.05;3.13;;;25.40;86.60;;;;;;5034784;28;20581;-70
2022/06/16 11:40:46;;;;;;;4.18;2.63;;;25.90;87.00;;;;;;5033678;28;20246;-73
2022/06/16 11:43:27;;;;;;;4.07;2.72;;;26.10;86.20;;;;;;5033557;28;20207;-72
2022/06/16 11:45:58;;;;;;;5.18;3.13;;;26.30;83.70;;;;;;5034860;28;20246;-71
2022/06/16 11:48:37;;;;;;;7.18;3.50;;;26.30;82.40;;;;;;5036507;28;20169;-73
2022/06/16 11:51:12;;;;;;;3.80;3.45;;;26.50;82.90;;;;;;5040918;28;20161;-71
2022/06/16 11:53:53;;;;;;;5.20;3.42;;;26.00;80.80;;;;;;5042996;28;20176;-70
2022/06/16 11:56:30;;;;;;;4.00;3.20;;;26.30;81.00;;;;;;5041612;28;20178;-69
2022/06/16 11:59:22;;;;;;;9.00;3.25;;;26.50;76.90;;;;;;5033970;28;20579;-72
2022/06/16 12:02:10;;;;;;;3.00;2.70;;;26.30;78.50;;;;;;5034024;28;20173;-69
2022/06/16 12:04:39;;;;;;;3.70;3.20;;;26.30;76.30;;;;;;5033029;28;20240;-72
2022/06/16 12:07:26;;;;;;;6.03;3.33;;;25.60;78.90;;;;;;5033135;28;20189;-70
2022/06/16 12:10:08;;;;;;;4.93;3.10;;;25.30;80.80;;;;;;5033802;28;20330;-71
2022/06/16 12:12:54;;;;;;;5.88;3.20;;;25.10;82.40;;;;;;5033445;28;20611;-71
2022/06/16 12:15:41;;;;;;;5.45;3.90;;;25.00;82.00;;;;;;5033488;28;20169;-71
2022/06/16 12:18:09;;;;;;;5.35;3.50;;;25.00;80.50;;;;;;5033785;28;20208;-70
2022/06/16 12:21:17;;;;;;;4.97;3.50;;;25.30;80.80;;;;;;5033253;28;20165;-70
2022/06/16 12:24:01;;;;;;;5.55;3.60;;;25.60;80.60;;;;;;5015078;28;20200;-72
2022/06/16 12:26:37;;;;;;;3.55;3.05;;;26.00;79.70;;;;;;5015109;28;20220;-69
2022/06/16 12:29:27;;;;;;;6.10;3.53;;;26.00;80.30;;;;;;5026117;28;20195;-69
2022/06/16 12:32:18;;;;;;;5.40;3.78;;;26.20;79.20;;;;;;5033526;28;20583;-70
2022/06/16 12:35:12;;;;;;;4.82;3.28;;;25.90;78.10;;;;;;5033767;28;20207;-71
2022/06/16 12:37:52;;;;;;;5.85;3.58;;;26.10;79.70;;;;;;5033376;28;20173;-71
2022/06/16 12:40:24;;;;;;;5.25;3.78;;;26.00;78.80;;;;;;5033206;28;20258;-71
2022/06/16 12:42:55;;;;;;;7.30;3.72;;;26.40;79.40;;;;;;5031672;28;20200;-70
2022/06/16 12:45:30;;;;;;;5.07;3.53;;;26.40;79.30;;;;;;5033559;28;20165;-69
2022/06/16 12:48:19;;;;;;;6.30;3.60;;;26.30;78.10;;;;;;5033128;28;20560;-72
2022/06/16 12:50:49;;;;;;;4.95;3.85;;;26.40;80.40;;;;;;5033119;28;20302;-72
2022/06/16 12:53:43;;;;;;;5.53;3.50;;;26.90;79.60;;;;;;5032836;28;20153;-70
2022/06/16 12:56:15;;;;;;;5.30;3.40;;;26.90;74.80;;;;;;5033495;28;20618;-71
2022/06/16 12:58:50;;;;;;;4.88;3.42;;;27.20;76.70;;;;;;5033025;28;20188;-72
2022/06/16 13:01:17;;;;;;;6.10;3.80;;;27.30;75.90;;;;;;5033105;28;20652;-72
2022/06/16 13:03:45;;;;;;;5.07;3.20;;;27.30;74.10;;;;;;5033167;28;20191;-71
2022/06/16 13:06:12;;;;;;;4.70;3.28;;;27.10;74.70;;;;;;5033230;28;20161;-71
2022/06/16 13:08:41;;;;;;;4.40;3.05;;;27.20;71.00;;;;;;5032964;28;20165;-71
2022/06/16 13:11:12;;;;;;;8.52;3.80;;;27.10;72.70;;;;;;5033036;28;20165;-70
2022/06/16 13:13:43;;;;;;;3.10;2.80;;;27.40;71.60;;;;;;5033384;28;20192;-73
2022/06/16 13:16:09;;;;;;;5.75;3.28;;;27.40;71.60;;;;;;5032935;28;20218;-72
2022/06/16 13:18:44;;;;;;;7.85;3.08;;;27.20;72.20;;;;;;5033063;28;20200;-70
2022/06/16 13:21:16;;;;;;;3.35;2.60;;;27.40;68.00;;;;;;5033024;28;20161;-70
2022/06/16 13:23:49;;;;;;;8.18;2.40;;;27.50;64.10;;;;;;5033013;28;20165;-72
2022/06/16 13:26:17;;;;;;;3.67;3.20;;;27.70;65.10;;;;;;5033050;28;20549;-72
2022/06/16 13:29:00;;;;;;;6.63;3.40;;;27.70;65.80;;;;;;5032949;28;20194;-71
2022/06/16 13:31:42;;;;;;;6.45;3.20;;;27.80;67.70;;;;;;5032967;28;20153;-72
2022/06/16 13:34:08;;;;;;;3.25;2.83;;;27.60;67.10;;;;;;5033284;28;20176;-71
2022/06/16 13:36:33;;;;;;;6.15;3.22;;;27.70;67.90;;;;;;5032180;28;20181;-70